createdAt,value
2017-09-21T00:00:03.776Z,0
2017-09-21T00:01:03.739Z,0
2017-09-21T00:02:03.790Z,0
2017-09-21T00:03:03.707Z,0
2017-09-21T00:04:03.702Z,0
2017-09-21T00:05:03.345Z,0
2017-09-21T00:06:03.030Z,0
2017-09-21T00:07:03.326Z,0
2017-09-21T00:08:02.662Z,0
2017-09-21T00:09:03.289Z,0
2017-09-21T00:10:03.572Z,0
2017-09-21T00:11:03.232Z,0
2017-09-21T00:12:03.232Z,0
2017-09-21T00:13:02.565Z,0
2017-09-21T00:14:03.181Z,0
2017-09-21T00:15:03.170Z,0
2017-09-21T00:16:03.131Z,0
2017-09-21T00:17:02.812Z,0
2017-09-21T00:18:02.786Z,0
2017-09-21T00:19:03.401Z,0
2017-09-21T00:20:03.051Z,0
2017-09-21T00:21:03.049Z,0
2017-09-21T00:22:03.325Z,0
2017-09-21T00:23:03.001Z,0
2017-09-21T00:24:03.284Z,0
2017-09-21T00:25:03.280Z,0
2017-09-21T00:26:02.629Z,0
2017-09-21T00:27:02.998Z,0
2017-09-21T00:28:02.919Z,0
2017-09-21T00:29:02.582Z,0
2017-09-21T00:30:02.858Z,0
2017-09-21T00:31:02.861Z,0
2017-09-21T00:32:02.848Z,0
2017-09-21T00:33:02.817Z,0
2017-09-21T00:34:02.464Z,0
2017-09-21T00:35:02.464Z,0
2017-09-21T00:36:03.062Z,0
2017-09-21T00:37:02.787Z,0
2017-09-21T00:38:02.408Z,0
2017-09-21T00:39:02.388Z,0
2017-09-21T00:40:02.678Z,0
2017-09-21T00:41:02.028Z,0
2017-09-21T00:42:02.618Z,0
2017-09-21T00:43:02.672Z,0
2017-09-21T00:44:02.917Z,0
2017-09-21T00:45:02.568Z,0
2017-09-21T00:46:02.589Z,0
2017-09-21T00:47:02.839Z,0
2017-09-21T00:48:02.510Z,0
2017-09-21T00:49:02.485Z,0
2017-09-21T00:50:02.491Z,0
2017-09-21T00:51:02.757Z,0
2017-09-21T00:52:02.741Z,0
2017-09-21T00:53:02.731Z,0
2017-09-21T00:54:02.395Z,0
2017-09-21T00:55:02.681Z,0
2017-09-21T00:56:02.356Z,0
2017-09-21T00:57:02.344Z,0
2017-09-21T00:58:02.619Z,0
2017-09-21T00:59:02.615Z,0
2017-09-21T01:00:02.608Z,0
2017-09-21T01:01:02.601Z,0
2017-09-21T01:02:02.564Z,0
2017-09-21T01:03:02.227Z,0
2017-09-21T01:04:02.508Z,0
2017-09-21T01:05:02.500Z,0
2017-09-21T01:06:02.459Z,0
2017-09-21T01:07:02.441Z,0
2017-09-21T01:08:02.439Z,0
2017-09-21T01:09:02.412Z,0
2017-09-21T01:10:02.402Z,0
2017-09-21T01:11:02.112Z,0
2017-09-21T01:12:02.352Z,0
2017-09-21T01:13:02.330Z,0
2017-09-21T01:14:02.310Z,0
2017-09-21T01:15:01.470Z,0
2017-09-21T01:16:02.285Z,0
2017-09-21T01:17:01.959Z,0
2017-09-21T01:18:02.240Z,0
2017-09-21T01:19:01.907Z,0
2017-09-21T01:20:02.200Z,0
2017-09-21T01:21:01.899Z,0
2017-09-21T01:22:02.162Z,0
2017-09-21T01:23:01.812Z,0
2017-09-21T01:24:01.850Z,0
2017-09-21T01:25:01.800Z,0
2017-09-21T01:26:02.088Z,0
2017-09-21T01:27:01.440Z,0
2017-09-21T01:28:02.040Z,0
2017-09-21T01:29:02.009Z,0
2017-09-21T01:30:01.988Z,0
2017-09-21T01:31:01.679Z,0
2017-09-21T01:32:01.951Z,0
2017-09-21T01:33:01.304Z,0
2017-09-21T01:34:01.920Z,0
2017-09-21T01:35:01.906Z,0
2017-09-21T01:36:01.874Z,0
2017-09-21T01:37:01.550Z,0
2017-09-21T01:38:01.844Z,0
2017-09-21T01:39:01.819Z,0
2017-09-21T01:40:01.186Z,0
2017-09-21T01:41:01.472Z,0
2017-09-21T01:42:01.460Z,0
2017-09-21T01:43:01.738Z,0
2017-09-21T01:44:01.470Z,0
2017-09-21T01:45:01.377Z,0
2017-09-21T01:46:01.061Z,0
2017-09-21T01:47:01.340Z,0
2017-09-21T01:48:01.041Z,0
2017-09-21T01:49:01.642Z,0
2017-09-21T01:50:00.990Z,0
2017-09-21T01:51:01.289Z,0
2017-09-21T01:52:00.940Z,0
2017-09-21T01:53:01.241Z,0
2017-09-21T01:54:01.527Z,0
2017-09-21T01:55:01.497Z,0
2017-09-21T01:56:01.508Z,0
2017-09-21T01:57:01.167Z,0
2017-09-21T01:58:01.451Z,0
2017-09-21T01:59:00.500Z,0
2017-09-21T02:00:01.408Z,0
2017-09-21T02:01:01.390Z,0
2017-09-21T02:02:01.353Z,0
2017-09-21T02:03:00.729Z,0
2017-09-21T02:04:00.710Z,0
2017-09-21T02:05:00.687Z,0
2017-09-21T02:06:01.314Z,0
2017-09-21T02:07:01.270Z,0
2017-09-21T02:08:00.937Z,0
2017-09-21T02:09:01.229Z,0
2017-09-21T02:10:01.200Z,0
2017-09-21T02:11:00.868Z,0
2017-09-21T02:12:01.172Z,0
2017-09-21T02:13:00.853Z,0
2017-09-21T02:14:01.143Z,0
2017-09-21T02:15:00.792Z,0
2017-09-21T02:16:00.480Z,0
2017-09-21T02:17:00.141Z,0
2017-09-21T02:18:01.040Z,0
2017-09-21T02:19:01.022Z,0
2017-09-21T02:20:01.020Z,0
2017-09-21T02:21:00.366Z,0
2017-09-21T02:22:00.658Z,0
2017-09-21T02:23:00.330Z,0
2017-09-21T02:24:00.001Z,0
2017-09-21T02:25:00.599Z,0
2017-09-21T02:26:00.882Z,0
2017-09-21T02:27:00.880Z,0
2017-09-21T02:27:59.915Z,0
2017-09-21T02:28:59.950Z,0
2017-09-21T02:30:00.501Z,0
2017-09-21T02:31:00.490Z,0
2017-09-21T02:32:00.781Z,0
2017-09-21T02:33:00.122Z,0
2017-09-21T02:34:00.733Z,0
2017-09-21T02:35:00.402Z,0
2017-09-21T02:36:00.092Z,0
2017-09-21T02:37:00.702Z,0
2017-09-21T02:38:00.355Z,0
2017-09-21T02:39:00.629Z,0
2017-09-21T02:40:00.022Z,0
2017-09-21T02:41:00.611Z,0
2017-09-21T02:42:00.296Z,0
2017-09-21T02:43:00.248Z,0
2017-09-21T02:43:59.968Z,0
2017-09-21T02:44:59.891Z,0
2017-09-21T02:46:00.190Z,0
2017-09-21T02:47:00.166Z,0
2017-09-21T02:47:59.527Z,0
2017-09-21T02:49:00.443Z,0
2017-09-21T02:50:00.101Z,0
2017-09-21T02:51:00.402Z,0
2017-09-21T02:52:00.380Z,0
2017-09-21T02:53:00.051Z,0
2017-09-21T02:54:00.019Z,0
2017-09-21T02:55:00.031Z,0
2017-09-21T02:55:59.977Z,0
2017-09-21T02:56:59.971Z,0
2017-09-21T02:57:59.946Z,0
2017-09-21T02:58:59.617Z,0
2017-09-21T03:00:00.220Z,0
2017-09-21T03:00:59.896Z,0
2017-09-21T03:02:00.184Z,0
2017-09-21T03:03:00.169Z,0
2017-09-21T03:04:00.139Z,0
2017-09-21T03:05:00.121Z,0
2017-09-21T03:05:59.789Z,0
2017-09-21T03:07:00.081Z,0
2017-09-21T03:08:00.045Z,0
2017-09-21T03:09:00.042Z,0
2017-09-21T03:09:59.397Z,0
2017-09-21T03:10:59.997Z,0
2017-09-21T03:11:59.665Z,0
2017-09-21T03:12:59.971Z,0
2017-09-21T03:13:59.623Z,0
2017-09-21T03:14:59.941Z,0
2017-09-21T03:15:59.950Z,0
2017-09-21T03:16:59.581Z,0
2017-09-21T03:17:59.563Z,0
2017-09-21T03:18:59.528Z,0
2017-09-21T03:19:59.832Z,0
2017-09-21T03:20:59.180Z,0
2017-09-21T03:21:59.458Z,0
2017-09-21T03:22:59.775Z,0
2017-09-21T03:23:59.421Z,0
2017-09-21T03:24:59.421Z,0
2017-09-21T03:25:59.081Z,0
2017-09-21T03:26:59.680Z,0
2017-09-21T03:27:59.348Z,0
2017-09-21T03:28:59.650Z,0
2017-09-21T03:29:59.020Z,0
2017-09-21T03:30:59.305Z,0
2017-09-21T03:31:59.593Z,0
2017-09-21T03:32:59.570Z,0
2017-09-21T03:33:59.567Z,0
2017-09-21T03:34:59.541Z,0
2017-09-21T03:35:59.510Z,0
2017-09-21T03:36:59.541Z,0
2017-09-21T03:37:59.488Z,0
2017-09-21T03:38:58.819Z,0
2017-09-21T03:39:59.121Z,0
2017-09-21T03:40:58.782Z,0
2017-09-21T03:41:59.402Z,0
2017-09-21T03:42:59.364Z,0
2017-09-21T03:43:59.352Z,0
2017-09-21T03:44:59.333Z,0
2017-09-21T03:45:59.011Z,0
2017-09-21T03:46:58.980Z,0
2017-09-21T03:47:58.950Z,0
2017-09-21T03:48:58.931Z,0
2017-09-21T03:49:58.910Z,0
2017-09-21T03:50:58.911Z,0
2017-09-21T03:51:58.881Z,0
2017-09-21T03:52:59.180Z,0
2017-09-21T03:53:58.851Z,0
2017-09-21T03:54:58.822Z,0
2017-09-21T03:55:58.497Z,0
2017-09-21T03:56:59.111Z,0
2017-09-21T03:57:58.450Z,0
2017-09-21T03:58:58.822Z,0
2017-09-21T03:59:59.048Z,0
2017-09-21T04:00:58.397Z,0
2017-09-21T04:01:59.001Z,0
2017-09-21T04:02:58.652Z,0
2017-09-21T04:03:58.963Z,0
2017-09-21T04:04:58.620Z,0
2017-09-21T04:05:58.921Z,0
2017-09-21T04:06:58.266Z,0
2017-09-21T04:07:58.266Z,0
2017-09-21T04:08:58.550Z,0
2017-09-21T04:09:58.845Z,0
2017-09-21T04:10:58.198Z,0
2017-09-21T04:11:58.801Z,0
2017-09-21T04:12:58.465Z,0
2017-09-21T04:13:58.443Z,0
2017-09-21T04:14:58.741Z,0
2017-09-21T04:15:58.711Z,0
2017-09-21T04:16:58.073Z,0
2017-09-21T04:17:57.741Z,0
2017-09-21T04:18:58.409Z,0
2017-09-21T04:19:58.311Z,0
2017-09-21T04:20:58.610Z,0
2017-09-21T04:21:58.280Z,0
2017-09-21T04:22:58.250Z,0
2017-09-21T04:23:58.233Z,0
2017-09-21T04:24:58.234Z,0
2017-09-21T04:25:57.903Z,0
2017-09-21T04:26:58.171Z,0
2017-09-21T04:27:58.459Z,0
2017-09-21T04:28:58.149Z,0
2017-09-21T04:29:58.123Z,0
2017-09-21T04:30:58.478Z,0
2017-09-21T04:31:58.421Z,0
2017-09-21T04:32:57.795Z,0
2017-09-21T04:33:57.725Z,0
2017-09-21T04:34:57.716Z,0
2017-09-21T04:35:58.409Z,0
2017-09-21T04:36:57.998Z,0
2017-09-21T04:37:58.327Z,0
2017-09-21T04:38:57.667Z,0
2017-09-21T04:39:57.924Z,0
2017-09-21T04:40:57.910Z,0
2017-09-21T04:41:58.198Z,0
2017-09-21T04:42:57.857Z,0
2017-09-21T04:43:57.834Z,0
2017-09-21T04:44:57.508Z,0
2017-09-21T04:45:57.799Z,0
2017-09-21T04:46:57.835Z,0
2017-09-21T04:47:57.795Z,0
2017-09-21T04:48:57.758Z,4
2017-09-21T04:49:57.728Z,0
2017-09-21T04:50:57.698Z,0
2017-09-21T04:51:57.379Z,4
2017-09-21T04:52:58.060Z,0
2017-09-21T04:53:57.648Z,4
2017-09-21T04:54:57.922Z,4
2017-09-21T04:55:57.908Z,4
2017-09-21T04:56:57.589Z,4
2017-09-21T04:57:57.571Z,4
2017-09-21T04:58:57.866Z,8
2017-09-21T04:59:57.217Z,12
2017-09-21T05:00:57.837Z,8
2017-09-21T05:01:57.820Z,12
2017-09-21T05:02:57.459Z,16
2017-09-21T05:03:57.447Z,20
2017-09-21T05:04:57.433Z,24
2017-09-21T05:05:57.728Z,24
2017-09-21T05:06:57.409Z,28
2017-09-21T05:07:57.673Z,32
2017-09-21T05:08:57.719Z,32
2017-09-21T05:09:57.332Z,40
2017-09-21T05:10:57.318Z,48
2017-09-21T05:11:57.639Z,48
2017-09-21T05:12:57.589Z,56
2017-09-21T05:13:57.570Z,64
2017-09-21T05:14:57.549Z,68
2017-09-21T05:15:56.916Z,76
2017-09-21T05:16:57.218Z,84
2017-09-21T05:17:57.191Z,92
2017-09-21T05:18:57.161Z,100
2017-09-21T05:19:57.136Z,112
2017-09-21T05:20:57.453Z,120
2017-09-21T05:21:57.115Z,128
2017-09-21T05:22:57.079Z,136
2017-09-21T05:23:57.062Z,152
2017-09-21T05:24:57.038Z,164
2017-09-21T05:25:57.024Z,180
2017-09-21T05:26:56.998Z,196
2017-09-21T05:27:56.357Z,212
2017-09-21T05:28:57.288Z,224
2017-09-21T05:29:57.245Z,240
2017-09-21T05:30:57.227Z,256
2017-09-21T05:31:56.897Z,272
2017-09-21T05:32:57.197Z,288
2017-09-21T05:33:57.168Z,304
2017-09-21T05:34:57.153Z,320
2017-09-21T05:35:57.161Z,332
2017-09-21T05:36:57.102Z,344
2017-09-21T05:37:57.104Z,364
2017-09-21T05:38:56.760Z,384
2017-09-21T05:39:57.048Z,412
2017-09-21T05:40:57.023Z,428
2017-09-21T05:41:56.398Z,440
2017-09-21T05:42:56.998Z,452
2017-09-21T05:43:56.668Z,480
2017-09-21T05:44:57.008Z,500
2017-09-21T05:45:56.643Z,516
2017-09-21T05:46:57.019Z,536
2017-09-21T05:47:56.899Z,552
2017-09-21T05:48:56.568Z,580
2017-09-21T05:49:56.240Z,616
2017-09-21T05:50:56.207Z,660
2017-09-21T05:51:56.518Z,692
2017-09-21T05:52:56.478Z,712
2017-09-21T05:53:56.777Z,740
2017-09-21T05:54:56.790Z,772
2017-09-21T05:55:56.488Z,804
2017-09-21T05:56:56.778Z,820
2017-09-21T05:57:56.390Z,824
2017-09-21T05:58:56.151Z,820
2017-09-21T05:59:56.340Z,820
2017-09-21T06:00:56.631Z,824
2017-09-21T06:01:56.619Z,832
2017-09-21T06:02:55.975Z,848
2017-09-21T06:03:56.591Z,876
2017-09-21T06:04:56.232Z,912
2017-09-21T06:05:56.285Z,960
2017-09-21T06:06:56.531Z,1028
2017-09-21T06:07:56.561Z,1092
2017-09-21T06:08:56.472Z,1128
2017-09-21T06:09:56.502Z,1144
2017-09-21T06:10:56.120Z,1164
2017-09-21T06:11:56.109Z,1220
2017-09-21T06:12:56.088Z,1288
2017-09-21T06:13:56.388Z,1364
2017-09-21T06:14:55.751Z,1444
2017-09-21T06:15:56.345Z,1508
2017-09-21T06:16:55.698Z,1560
2017-09-21T06:17:56.360Z,1640
2017-09-21T06:18:55.970Z,1732
2017-09-21T06:19:56.297Z,1872
2017-09-21T06:20:55.939Z,2016
2017-09-21T06:21:55.910Z,2132
2017-09-21T06:22:56.208Z,2248
2017-09-21T06:23:56.188Z,2372
2017-09-21T06:24:56.181Z,2496
2017-09-21T06:25:55.516Z,2636
2017-09-21T06:26:55.803Z,2828
2017-09-21T06:27:56.096Z,3088
2017-09-21T06:28:56.090Z,3264
2017-09-21T06:29:56.049Z,3496
2017-09-21T06:30:55.737Z,3780
2017-09-21T06:31:55.719Z,4076
2017-09-21T06:32:55.695Z,4268
2017-09-21T06:33:56.030Z,4404
2017-09-21T06:34:55.646Z,4512
2017-09-21T06:35:55.328Z,4740
2017-09-21T06:36:55.608Z,5040
2017-09-21T06:37:55.268Z,5356
2017-09-21T06:38:55.251Z,5724
2017-09-21T06:39:55.229Z,5864
2017-09-21T06:40:55.527Z,6060
2017-09-21T06:41:54.888Z,6160
2017-09-21T06:42:55.488Z,6628
2017-09-21T06:43:55.470Z,8572
2017-09-21T06:44:55.139Z,9976
2017-09-21T06:45:55.459Z,31072
2017-09-21T06:46:55.120Z,30784
2017-09-21T06:47:55.450Z,27840
2017-09-21T06:48:55.378Z,27488
2017-09-21T06:49:55.698Z,29792
2017-09-21T06:50:55.339Z,34528
2017-09-21T06:51:55.308Z,36416
2017-09-21T06:52:55.651Z,36224
2017-09-21T06:53:55.310Z,35360
2017-09-21T06:54:55.255Z,35040
2017-09-21T06:55:54.938Z,35584
2017-09-21T06:56:55.216Z,34848
2017-09-21T06:57:55.219Z,33792
2017-09-21T06:58:55.203Z,36800
2017-09-21T06:59:55.176Z,38560
2017-09-21T07:00:55.158Z,39712
2017-09-21T07:01:55.449Z,30592
2017-09-21T07:02:55.431Z,13452
2017-09-21T07:03:55.144Z,8888
2017-09-21T07:04:55.399Z,8892
2017-09-21T07:05:55.079Z,8932
2017-09-21T07:06:55.105Z,9000
2017-09-21T07:07:55.043Z,9052
2017-09-21T07:08:55.368Z,9140
2017-09-21T07:09:55.318Z,9200
2017-09-21T07:10:55.290Z,9296
2017-09-21T07:11:55.271Z,9348
2017-09-21T07:12:54.992Z,9424
2017-09-21T07:13:55.258Z,9460
2017-09-21T07:14:55.324Z,9520
2017-09-21T07:15:55.269Z,9540
2017-09-21T07:16:54.647Z,9636
2017-09-21T07:17:55.185Z,9748
2017-09-21T07:18:55.229Z,9840
2017-09-21T07:19:55.149Z,9924
2017-09-21T07:20:55.149Z,10044
2017-09-21T07:21:55.140Z,10124
2017-09-21T07:22:55.108Z,10180
2017-09-21T07:23:54.768Z,10272
2017-09-21T07:24:54.767Z,10348
2017-09-21T07:25:54.757Z,10464
2017-09-21T07:26:55.059Z,10568
2017-09-21T07:27:54.710Z,10648
2017-09-21T07:28:55.011Z,10828
2017-09-21T07:29:54.698Z,11128
2017-09-21T07:30:54.729Z,13848
2017-09-21T07:31:54.970Z,29120
2017-09-21T07:32:54.984Z,45696
2017-09-21T07:33:54.619Z,56736
2017-09-21T07:34:54.930Z,59104
2017-09-21T07:35:54.636Z,59136
2017-09-21T07:36:54.609Z,56160
2017-09-21T07:37:54.586Z,54592
2017-09-21T07:38:54.565Z,60128
2017-09-21T07:39:54.875Z,62112
2017-09-21T07:40:54.250Z,59424
2017-09-21T07:41:54.536Z,58720
2017-09-21T07:42:54.534Z,61920
2017-09-21T07:43:54.518Z,63776
2017-09-21T07:44:54.831Z,60704
2017-09-21T07:45:54.495Z,59008
2017-09-21T07:46:54.494Z,58816
2017-09-21T07:47:54.782Z,58400
2017-09-21T07:48:54.796Z,58112
2017-09-21T07:49:54.810Z,60640
2017-09-21T07:50:54.792Z,57952
2017-09-21T07:51:54.791Z,49728
2017-09-21T07:52:54.770Z,53536
2017-09-21T07:53:54.747Z,62496
2017-09-21T07:54:54.481Z,63264
2017-09-21T07:55:54.741Z,59168
2017-09-21T07:56:54.758Z,56992
2017-09-21T07:57:54.803Z,60544
2017-09-21T07:58:54.753Z,63872
2017-09-21T07:59:54.761Z,64224
2017-09-21T08:00:54.400Z,63712
2017-09-21T08:01:54.779Z,64864
2017-09-21T08:02:54.691Z,61792
2017-09-21T08:03:54.692Z,60992
2017-09-21T08:04:54.749Z,64416
2017-09-21T08:05:54.664Z,67776
2017-09-21T08:06:54.697Z,62560
2017-09-21T08:07:54.085Z,58688
2017-09-21T08:08:54.661Z,62304
2017-09-21T08:09:54.701Z,62720
2017-09-21T08:10:54.671Z,64000
2017-09-21T08:11:54.634Z,67712
2017-09-21T08:12:54.650Z,64352
2017-09-21T08:13:54.403Z,59968
2017-09-21T08:14:54.312Z,61760
2017-09-21T08:15:54.600Z,67520
2017-09-21T08:16:53.676Z,68544
2017-09-21T08:17:53.961Z,65792
2017-09-21T08:18:54.582Z,66016
2017-09-21T08:19:54.567Z,66208
2017-09-21T08:20:53.992Z,60064
2017-09-21T08:21:54.270Z,60384
2017-09-21T08:22:53.950Z,62848
2017-09-21T08:23:53.934Z,64512
2017-09-21T08:24:54.317Z,66368
2017-09-21T08:25:53.913Z,61824
2017-09-21T08:26:54.247Z,60800
2017-09-21T08:27:54.264Z,68608
2017-09-21T08:28:54.221Z,67680
2017-09-21T08:29:53.901Z,56256
2017-09-21T08:30:53.896Z,55936
2017-09-21T08:31:53.885Z,57280
2017-09-21T08:32:54.585Z,55968
2017-09-21T08:33:54.212Z,60288
2017-09-21T08:34:54.230Z,58944
2017-09-21T08:35:54.184Z,63104
2017-09-21T08:36:54.523Z,66016
2017-09-21T08:37:54.177Z,64832
2017-09-21T08:38:53.913Z,65792
2017-09-21T08:39:54.180Z,66848
2017-09-21T08:40:54.479Z,63456
2017-09-21T08:41:54.500Z,64032
2017-09-21T08:42:54.466Z,69568
2017-09-21T08:43:54.183Z,69184
2017-09-21T08:44:53.842Z,63872
2017-09-21T08:45:53.829Z,64128
2017-09-21T08:46:54.151Z,69696
2017-09-21T08:47:54.460Z,71104
2017-09-21T08:48:53.822Z,63104
2017-09-21T08:49:54.133Z,65376
2017-09-21T08:50:54.451Z,66752
2017-09-21T08:51:54.450Z,59776
2017-09-21T08:52:54.434Z,66688
2017-09-21T08:53:54.434Z,71424
2017-09-21T08:54:54.438Z,66400
2017-09-21T08:55:54.424Z,63104
2017-09-21T08:56:53.781Z,66432
2017-09-21T08:57:54.108Z,64960
2017-09-21T08:58:54.153Z,59936
2017-09-21T08:59:54.129Z,68512
2017-09-21T09:00:54.091Z,71936
2017-09-21T09:01:54.101Z,66560
2017-09-21T09:02:54.090Z,66400
2017-09-21T09:03:54.369Z,66304
2017-09-21T09:04:54.393Z,64448
2017-09-21T09:05:54.085Z,65472
2017-09-21T09:06:54.460Z,63648
2017-09-21T09:07:54.068Z,64288
2017-09-21T09:08:54.055Z,61440
2017-09-21T09:09:54.412Z,60832
2017-09-21T09:10:54.081Z,58432
2017-09-21T09:11:54.041Z,61984
2017-09-21T09:12:54.063Z,61440
2017-09-21T09:13:54.063Z,60416
2017-09-21T09:14:54.372Z,62720
2017-09-21T09:15:54.056Z,64096
2017-09-21T09:16:54.053Z,63840
2017-09-21T09:17:54.437Z,62496
2017-09-21T09:18:54.354Z,60544
2017-09-21T09:19:54.410Z,59552
2017-09-21T09:20:54.340Z,59776
2017-09-21T09:21:54.330Z,59360
2017-09-21T09:22:54.331Z,56256
2017-09-21T09:23:54.014Z,58560
2017-09-21T09:24:54.314Z,58752
2017-09-21T09:25:54.308Z,60672
2017-09-21T09:26:54.064Z,57856
2017-09-21T09:27:54.022Z,58688
2017-09-21T09:28:53.687Z,56928
2017-09-21T09:29:53.369Z,56032
2017-09-21T09:30:53.992Z,58656
2017-09-21T09:31:53.692Z,57792
2017-09-21T09:32:53.693Z,58368
2017-09-21T09:33:54.291Z,58848
2017-09-21T09:34:53.654Z,58048
2017-09-21T09:35:54.279Z,57696
2017-09-21T09:36:53.960Z,59712
2017-09-21T09:37:54.033Z,60192
2017-09-21T09:38:53.949Z,57344
2017-09-21T09:39:53.974Z,58112
2017-09-21T09:40:54.272Z,59296
2017-09-21T09:41:54.260Z,60000
2017-09-21T09:42:54.295Z,56800
2017-09-21T09:43:53.961Z,54048
2017-09-21T09:44:53.930Z,30272
2017-09-21T09:45:53.943Z,55616
2017-09-21T09:46:53.921Z,56000
2017-09-21T09:47:54.249Z,55904
2017-09-21T09:48:53.928Z,41312
2017-09-21T09:49:54.222Z,39968
2017-09-21T09:50:53.921Z,37280
2017-09-21T09:51:53.909Z,52800
2017-09-21T09:52:54.200Z,52160
2017-09-21T09:53:53.880Z,53184
2017-09-21T09:54:54.200Z,44928
2017-09-21T09:55:53.240Z,49024
2017-09-21T09:56:54.173Z,50368
2017-09-21T09:57:54.170Z,47488
2017-09-21T09:58:53.862Z,50144
2017-09-21T09:59:54.161Z,51584
2017-09-21T10:00:53.850Z,50368
2017-09-21T10:01:54.152Z,50528
2017-09-21T10:02:54.172Z,50720
2017-09-21T10:03:54.130Z,38976
2017-09-21T10:04:54.132Z,12076
2017-09-21T10:05:54.130Z,45600
2017-09-21T10:06:54.110Z,45920
2017-09-21T10:07:53.489Z,47328
2017-09-21T10:08:54.101Z,44832
2017-09-21T10:09:54.086Z,41984
2017-09-21T10:10:53.768Z,43872
2017-09-21T10:11:54.078Z,43552
2017-09-21T10:12:53.439Z,40096
2017-09-21T10:13:53.758Z,39520
2017-09-21T10:14:54.065Z,36192
2017-09-21T10:15:53.429Z,38816
2017-09-21T10:16:53.737Z,38304
2017-09-21T10:17:54.011Z,35296
2017-09-21T10:18:53.720Z,39424
2017-09-21T10:19:53.696Z,43264
2017-09-21T10:20:54.093Z,39936
2017-09-21T10:21:53.376Z,36064
2017-09-21T10:22:54.022Z,36544
2017-09-21T10:23:53.988Z,37760
2017-09-21T10:24:53.690Z,37344
2017-09-21T10:25:53.980Z,33088
2017-09-21T10:26:53.985Z,31648
2017-09-21T10:27:53.971Z,30400
2017-09-21T10:28:53.960Z,30304
2017-09-21T10:29:53.649Z,30176
2017-09-21T10:30:53.951Z,28864
2017-09-21T10:31:53.944Z,28128
2017-09-21T10:32:53.931Z,29696
2017-09-21T10:33:53.947Z,29920
2017-09-21T10:34:53.589Z,28544
2017-09-21T10:35:53.922Z,28640
2017-09-21T10:36:53.922Z,28960
2017-09-21T10:37:53.579Z,30272
2017-09-21T10:38:53.245Z,27072
2017-09-21T10:39:53.553Z,25664
2017-09-21T10:40:53.553Z,24480
2017-09-21T10:41:53.233Z,27744
2017-09-21T10:42:53.552Z,40736
2017-09-21T10:43:53.848Z,45440
2017-09-21T10:44:53.821Z,23744
2017-09-21T10:45:53.226Z,19904
2017-09-21T10:46:53.195Z,18144
2017-09-21T10:47:53.529Z,18400
2017-09-21T10:48:53.480Z,17728
2017-09-21T10:49:53.490Z,9336
2017-09-21T10:50:53.474Z,10576
2017-09-21T10:51:53.766Z,19968
2017-09-21T10:52:53.752Z,21280
2017-09-21T10:53:53.882Z,21632
2017-09-21T10:54:53.740Z,12952
2017-09-21T10:55:53.871Z,13548
2017-09-21T10:56:53.721Z,8968
2017-09-21T10:57:53.560Z,8684
2017-09-21T10:58:53.089Z,9288
2017-09-21T10:59:53.790Z,9584
2017-09-21T11:00:53.700Z,11720
2017-09-21T11:01:53.379Z,11044
2017-09-21T11:02:53.676Z,7512
2017-09-21T11:03:53.660Z,7260
2017-09-21T11:04:52.717Z,7680
2017-09-21T11:05:53.690Z,7988
2017-09-21T11:06:53.670Z,8632
2017-09-21T11:07:53.341Z,11044
2017-09-21T11:08:53.001Z,11772
2017-09-21T11:09:53.620Z,11036
2017-09-21T11:10:52.973Z,9748
2017-09-21T11:11:53.599Z,9452
2017-09-21T11:12:52.959Z,11248
2017-09-21T11:13:53.272Z,7852
2017-09-21T11:14:53.256Z,7856
2017-09-21T11:15:53.559Z,7832
2017-09-21T11:16:52.953Z,7648
2017-09-21T11:17:53.544Z,7608
2017-09-21T11:18:52.896Z,10464
2017-09-21T11:19:53.218Z,11640
2017-09-21T11:20:53.499Z,11420
2017-09-21T11:21:53.179Z,11448
2017-09-21T11:22:53.169Z,11468
2017-09-21T11:23:53.189Z,11056
2017-09-21T11:24:53.157Z,11044
2017-09-21T11:25:52.842Z,11072
2017-09-21T11:26:52.945Z,11028
2017-09-21T11:27:53.141Z,10832
2017-09-21T11:28:53.418Z,10748
2017-09-21T11:29:53.412Z,10356
2017-09-21T11:30:53.389Z,9128
2017-09-21T11:31:53.099Z,10736
2017-09-21T11:32:53.068Z,10632
2017-09-21T11:33:53.399Z,10460
2017-09-21T11:34:53.058Z,10968
2017-09-21T11:35:52.744Z,11556
2017-09-21T11:36:52.738Z,11572
2017-09-21T11:37:53.339Z,11356
2017-09-21T11:38:52.723Z,11400
2017-09-21T11:39:53.028Z,11236
2017-09-21T11:40:52.991Z,11136
2017-09-21T11:41:53.049Z,11036
2017-09-21T11:42:53.018Z,10532
2017-09-21T11:43:53.298Z,10472
2017-09-21T11:44:53.299Z,7260
2017-09-21T11:45:53.096Z,7272
2017-09-21T11:46:53.329Z,8480
2017-09-21T11:47:52.954Z,9696
2017-09-21T11:48:52.968Z,10128
2017-09-21T11:49:53.249Z,10416
2017-09-21T11:50:53.233Z,10640
2017-09-21T11:51:52.983Z,9904
2017-09-21T11:52:52.896Z,10756
2017-09-21T11:53:53.237Z,10476
2017-09-21T11:54:52.582Z,10464
2017-09-21T11:55:53.218Z,10356
2017-09-21T11:56:52.851Z,10408
2017-09-21T11:57:52.532Z,10432
2017-09-21T11:58:52.826Z,10368
2017-09-21T11:59:52.505Z,10224
2017-09-21T12:00:53.108Z,10084
2017-09-21T12:01:52.796Z,9996
2017-09-21T12:02:52.795Z,9876
2017-09-21T12:03:53.145Z,9624
2017-09-21T12:04:52.770Z,9640
2017-09-21T12:05:52.449Z,9708
2017-09-21T12:06:52.752Z,9792
2017-09-21T12:07:52.758Z,10060
2017-09-21T12:08:52.743Z,10132
2017-09-21T12:09:52.431Z,7700
2017-09-21T12:10:53.024Z,10348
2017-09-21T12:11:52.724Z,10504
2017-09-21T12:12:53.018Z,10500
2017-09-21T12:13:52.999Z,6388
2017-09-21T12:14:52.694Z,6252
2017-09-21T12:15:52.981Z,6032
2017-09-21T12:16:52.978Z,6104
2017-09-21T12:17:52.989Z,6336
2017-09-21T12:18:52.637Z,9636
2017-09-21T12:19:52.931Z,10752
2017-09-21T12:20:52.926Z,9272
2017-09-21T12:21:52.923Z,7236
2017-09-21T12:22:52.911Z,6296
2017-09-21T12:23:52.912Z,6108
2017-09-21T12:24:52.909Z,6264
2017-09-21T12:25:52.895Z,9560
2017-09-21T12:26:52.865Z,7644
2017-09-21T12:27:52.856Z,9212
2017-09-21T12:28:52.852Z,9944
2017-09-21T12:29:52.210Z,9936
2017-09-21T12:30:52.507Z,9808
2017-09-21T12:31:52.823Z,9936
2017-09-21T12:32:52.821Z,9624
2017-09-21T12:33:52.798Z,9360
2017-09-21T12:34:52.934Z,9528
2017-09-21T12:35:52.767Z,9720
2017-09-21T12:36:52.804Z,9956
2017-09-21T12:37:52.761Z,10132
2017-09-21T12:38:52.762Z,10148
2017-09-21T12:39:52.762Z,10356
2017-09-21T12:40:52.101Z,10560
2017-09-21T12:41:52.791Z,10432
2017-09-21T12:42:52.389Z,10160
2017-09-21T12:43:52.779Z,9984
2017-09-21T12:44:52.704Z,9896
2017-09-21T12:45:52.723Z,10144
2017-09-21T12:46:52.669Z,10220
2017-09-21T12:47:52.340Z,10140
2017-09-21T12:48:52.659Z,10404
2017-09-21T12:49:52.671Z,10640
2017-09-21T12:50:52.320Z,10152
2017-09-21T12:51:52.294Z,10016
2017-09-21T12:52:52.290Z,9804
2017-09-21T12:53:52.328Z,9548
2017-09-21T12:54:52.586Z,9352
2017-09-21T12:55:52.251Z,9168
2017-09-21T12:56:52.256Z,9056
2017-09-21T12:57:52.567Z,5416
2017-09-21T12:58:52.543Z,5336
2017-09-21T12:59:52.239Z,6500
2017-09-21T13:00:52.529Z,8272
2017-09-21T13:01:52.200Z,8472
2017-09-21T13:02:52.186Z,6312
2017-09-21T13:03:52.498Z,6120
2017-09-21T13:04:52.161Z,7792
2017-09-21T13:05:51.838Z,8568
2017-09-21T13:06:51.843Z,8580
2017-09-21T13:07:52.444Z,8876
2017-09-21T13:08:52.426Z,8940
2017-09-21T13:09:52.461Z,9156
2017-09-21T13:10:52.437Z,9120
2017-09-21T13:11:52.085Z,8780
2017-09-21T13:12:51.759Z,7696
2017-09-21T13:13:52.075Z,5432
2017-09-21T13:14:52.069Z,6196
2017-09-21T13:15:52.378Z,8412
2017-09-21T13:16:52.371Z,7336
2017-09-21T13:17:52.340Z,5076
2017-09-21T13:18:52.349Z,4952
2017-09-21T13:19:52.340Z,4736
2017-09-21T13:20:52.321Z,4560
2017-09-21T13:21:51.682Z,4468
2017-09-21T13:22:52.290Z,4532
2017-09-21T13:23:52.290Z,4584
2017-09-21T13:24:52.040Z,4612
2017-09-21T13:25:52.280Z,4700
2017-09-21T13:26:52.261Z,4868
2017-09-21T13:27:51.945Z,5032
2017-09-21T13:28:52.253Z,5244
2017-09-21T13:29:51.927Z,6280
2017-09-21T13:30:51.900Z,9684
2017-09-21T13:31:52.188Z,9836
2017-09-21T13:32:51.551Z,10016
2017-09-21T13:33:51.850Z,9880
2017-09-21T13:34:52.240Z,9652
2017-09-21T13:35:51.538Z,9504
2017-09-21T13:36:51.827Z,9364
2017-09-21T13:37:51.828Z,9228
2017-09-21T13:38:51.586Z,9028
2017-09-21T13:39:51.795Z,8804
2017-09-21T13:40:51.828Z,8684